createdAt,value
2022-08-03T00:01:43.910Z,29.30
2022-08-03T00:04:11.987Z,29.40
2022-08-03T00:06:39.734Z,29.20
2022-08-03T00:09:09.373Z,29.00
2022-08-03T00:11:37.232Z,28.80
2022-08-03T00:14:05.867Z,28.60
2022-08-03T00:16:33.647Z,28.60
2022-08-03T00:19:01.528Z,28.70
2022-08-03T00:21:29.355Z,28.80
2022-08-03T00:23:57.255Z,28.80
2022-08-03T00:26:26.346Z,28.80
2022-08-03T00:28:54.184Z,28.80
2022-08-03T00:31:28.408Z,28.80
2022-08-03T00:34:09.096Z,28.80
2022-08-03T00:36:36.885Z,28.70
2022-08-03T00:39:04.760Z,28.70
2022-08-03T00:41:33.918Z,28.70
2022-08-03T00:44:01.664Z,28.70
2022-08-03T00:46:29.594Z,28.70
2022-08-03T00:48:57.590Z,28.70
2022-08-03T00:51:26.257Z,28.80
2022-08-03T00:53:54.288Z,28.80
2022-08-03T00:56:22.188Z,28.70
2022-08-03T00:58:52.935Z,28.60
2022-08-03T01:01:20.804Z,28.70
2022-08-03T01:03:48.756Z,28.50
2022-08-03T01:06:19.391Z,28.40
2022-08-03T01:08:53.804Z,28.50
2022-08-03T01:11:32.531Z,28.60
2022-08-03T01:14:18.838Z,28.50
2022-08-03T01:16:56.911Z,28.40
2022-08-03T01:19:47.133Z,28.40
2022-08-03T01:22:37.522Z,28.30
2022-08-03T01:25:14.333Z,28.40
2022-08-03T01:27:54.972Z,28.50
2022-08-03T01:30:28.843Z,28.50
2022-08-03T01:33:01.973Z,28.60
2022-08-03T01:35:46.511Z,28.40
2022-08-03T01:38:16.361Z,28.00
2022-08-03T01:40:45.960Z,27.70
2022-08-03T01:43:58.952Z,27.60
2022-08-03T01:46:09.050Z,27.60
2022-08-03T01:48:38.091Z,27.90
2022-08-03T01:51:09.274Z,28.10
2022-08-03T01:53:38.510Z,28.20
2022-08-03T01:56:07.653Z,28.20
2022-08-03T01:58:37.080Z,28.30
2022-08-03T02:01:09.388Z,28.20
2022-08-03T02:03:58.108Z,28.20
2022-08-03T02:07:01.507Z,28.20
2022-08-03T02:09:22.000Z,28.20
2022-08-03T02:11:51.330Z,28.20
2022-08-03T02:14:21.611Z,28.10
2022-08-03T02:16:51.920Z,27.90
2022-08-03T02:19:20.061Z,27.90
2022-08-03T02:21:56.530Z,27.80
2022-08-03T02:24:29.617Z,27.60
2022-08-03T02:26:59.011Z,27.60
2022-08-03T02:29:39.315Z,27.40
2022-08-03T02:32:15.112Z,27.50
2022-08-03T02:34:47.960Z,27.50
2022-08-03T02:37:18.893Z,27.50
2022-08-03T02:39:48.310Z,27.60
2022-08-03T02:42:21.022Z,27.60
2022-08-03T02:44:51.562Z,27.60
2022-08-03T02:47:21.670Z,27.60
2022-08-03T02:49:52.453Z,27.60
2022-08-03T02:52:23.521Z,27.60
2022-08-03T02:54:55.312Z,27.50
2022-08-03T02:57:26.109Z,27.50
2022-08-03T02:59:55.610Z,27.30
2022-08-03T03:02:25.549Z,27.10
2022-08-03T03:05:52.240Z,27.10
2022-08-03T03:07:52.110Z,27.00
2022-08-03T03:10:23.265Z,26.90
2022-08-03T03:12:53.029Z,27.00
2022-08-03T03:15:21.310Z,27.10
2022-08-03T03:17:52.005Z,27.10
2022-08-03T03:20:29.544Z,27.10
2022-08-03T03:23:01.146Z,27.10
2022-08-03T03:25:31.260Z,27.10
2022-08-03T03:27:59.539Z,26.90
2022-08-03T03:30:28.062Z,27.00
2022-08-03T03:32:58.842Z,27.00
2022-08-03T03:35:27.966Z,27.00
2022-08-03T03:37:55.850Z,27.10
2022-08-03T03:40:24.081Z,27.20
2022-08-03T03:42:52.404Z,27.10
2022-08-03T03:45:20.989Z,26.80
2022-08-03T03:47:49.618Z,26.60
2022-08-03T03:50:19.668Z,26.50
2022-08-03T03:52:47.613Z,26.50
2022-08-03T03:55:17.993Z,26.50
2022-08-03T03:57:45.891Z,26.60
2022-08-03T04:00:15.773Z,26.50
2022-08-03T04:02:43.889Z,26.40
2022-08-03T04:05:30.944Z,26.50
2022-08-03T04:08:21.678Z,26.50
2022-08-03T04:11:02.679Z,26.50
2022-08-03T04:13:34.304Z,26.50
2022-08-03T04:16:03.468Z,26.50
2022-08-03T04:18:33.239Z,26.40
2022-08-03T04:21:03.968Z,26.50
2022-08-03T04:23:37.319Z,26.50
2022-08-03T04:26:08.270Z,26.40
2022-08-03T04:28:37.740Z,26.40
2022-08-03T04:31:07.718Z,26.50
2022-08-03T04:33:39.270Z,26.50
2022-08-03T04:36:10.011Z,26.50
2022-08-03T04:38:44.432Z,26.50
2022-08-03T04:41:13.309Z,26.60
2022-08-03T04:43:42.064Z,26.70
2022-08-03T04:46:10.629Z,26.70
2022-08-03T04:48:41.282Z,26.40
2022-08-03T04:51:13.230Z,26.50
2022-08-03T04:53:44.163Z,26.70
2022-08-03T04:56:12.417Z,26.60
2022-08-03T04:58:40.466Z,26.70
2022-08-03T05:01:08.424Z,26.60
2022-08-03T05:03:36.542Z,26.70
2022-08-03T05:06:09.983Z,26.60
2022-08-03T05:08:47.036Z,26.70
2022-08-03T05:11:16.948Z,26.90
2022-08-03T05:13:45.460Z,26.90
2022-08-03T05:16:14.150Z,26.80
2022-08-03T05:18:42.355Z,26.90
2022-08-03T05:21:10.693Z,27.00
2022-08-03T05:23:38.477Z,27.10
2022-08-03T05:26:07.801Z,27.00
2022-08-03T05:28:35.719Z,26.90
2022-08-03T05:31:03.511Z,26.80
2022-08-03T05:33:31.391Z,26.80
2022-08-03T05:36:03.577Z,26.90
2022-08-03T05:38:35.045Z,27.00
2022-08-03T05:41:21.021Z,27.00
2022-08-03T05:43:54.690Z,27.20
2022-08-03T05:46:23.272Z,27.20
2022-08-03T05:48:51.542Z,27.20
2022-08-03T05:51:19.469Z,27.00
2022-08-03T05:53:47.369Z,27.20
2022-08-03T05:56:16.655Z,27.40
2022-08-03T05:58:48.177Z,27.50
2022-08-03T06:01:18.478Z,27.50
2022-08-03T06:03:46.850Z,27.60
2022-08-03T06:06:14.999Z,27.70
2022-08-03T06:08:43.768Z,27.70
2022-08-03T06:11:12.097Z,27.80
2022-08-03T06:13:40.403Z,27.80
2022-08-03T06:16:08.341Z,27.90
2022-08-03T06:18:38.270Z,27.90
2022-08-03T06:21:14.464Z,27.90
2022-08-03T06:23:53.062Z,28.00
2022-08-03T06:26:23.793Z,28.20
2022-08-03T06:28:53.942Z,28.20
2022-08-03T06:31:33.078Z,28.30
2022-08-03T06:34:32.657Z,28.40
2022-08-03T06:36:58.494Z,28.40
2022-08-03T06:39:29.796Z,28.50
2022-08-03T06:41:58.285Z,28.60
2022-08-03T06:44:26.421Z,28.60
2022-08-03T06:46:54.463Z,28.70
2022-08-03T06:49:23.696Z,28.80
2022-08-03T06:52:03.277Z,28.80
2022-08-03T06:54:33.361Z,28.80
2022-08-03T06:57:01.565Z,28.80
2022-08-03T07:00:08.706Z,28.90
2022-08-03T07:02:19.532Z,29.00
2022-08-03T07:04:49.426Z,29.10
2022-08-03T07:07:18.142Z,29.10
2022-08-03T07:09:57.367Z,29.10
2022-08-03T07:12:26.984Z,29.10
2022-08-03T07:14:59.750Z,29.20
2022-08-03T07:17:28.684Z,29.30
2022-08-03T07:19:58.235Z,29.30
2022-08-03T07:22:26.335Z,29.30
2022-08-03T07:24:54.367Z,29.40
2022-08-03T07:27:22.751Z,29.40
2022-08-03T07:29:50.447Z,29.50
2022-08-03T07:32:18.508Z,29.50
2022-08-03T07:34:46.852Z,29.60
2022-08-03T07:37:16.289Z,29.70
2022-08-03T07:39:44.888Z,29.80
2022-08-03T07:42:12.652Z,29.90
2022-08-03T07:44:40.769Z,30.00
2022-08-03T07:47:09.167Z,30.00
2022-08-03T07:49:40.987Z,30.00
2022-08-03T07:52:29.238Z,30.10
2022-08-03T07:54:58.508Z,30.30
2022-08-03T07:57:26.470Z,30.30
2022-08-03T07:59:57.093Z,30.40
2022-08-03T08:02:39.921Z,30.50
2022-08-03T08:05:08.703Z,30.60
2022-08-03T08:07:36.858Z,30.60
2022-08-03T08:10:07.910Z,30.70
2022-08-03T08:12:36.070Z,30.80
2022-08-03T08:15:04.702Z,30.90
2022-08-03T08:17:41.013Z,31.00
2022-08-03T08:20:10.200Z,30.90
2022-08-03T08:22:37.947Z,30.90
2022-08-03T08:25:10.394Z,31.00
2022-08-03T08:28:29.925Z,31.10
2022-08-03T08:30:33.121Z,31.10
2022-08-03T08:33:01.101Z,31.10
2022-08-03T08:35:29.384Z,31.00
2022-08-03T08:37:57.403Z,31.00
2022-08-03T08:40:28.540Z,31.00
2022-08-03T08:42:58.794Z,31.20
2022-08-03T08:45:27.938Z,31.20
2022-08-03T08:48:01.105Z,31.20
2022-08-03T08:50:31.903Z,31.30
2022-08-03T08:53:03.644Z,31.50
2022-08-03T08:55:59.178Z,31.50
2022-08-03T08:58:24.400Z,31.50
2022-08-03T09:00:52.678Z,31.50
2022-08-03T09:03:25.239Z,31.70
2022-08-03T09:06:00.971Z,31.80
2022-08-03T09:08:30.192Z,31.70
2022-08-03T09:10:59.779Z,31.80
2022-08-03T09:13:27.852Z,32.00
2022-08-03T09:16:12.977Z,32.20
2022-08-03T09:18:41.968Z,32.40
2022-08-03T09:21:31.282Z,32.50
2022-08-03T09:24:04.414Z,32.50
2022-08-03T09:26:38.202Z,32.60
2022-08-03T09:29:13.472Z,32.70
2022-08-03T09:31:45.002Z,32.80
2022-08-03T09:34:14.816Z,32.80
2022-08-03T09:36:45.080Z,32.60
2022-08-03T09:39:15.132Z,32.70
2022-08-03T09:41:46.279Z,33.00
2022-08-03T09:44:24.340Z,33.00
2022-08-03T09:46:55.579Z,33.00
2022-08-03T09:49:24.818Z,32.80
2022-08-03T09:52:33.283Z,32.90
2022-08-03T09:54:42.490Z,33.10
2022-08-03T09:57:22.369Z,33.20
2022-08-03T09:59:53.812Z,33.30
2022-08-03T10:02:26.252Z,33.40
2022-08-03T10:04:55.284Z,33.40
2022-08-03T10:07:25.062Z,33.50
2022-08-03T10:09:58.050Z,33.70
2022-08-03T10:12:49.383Z,33.90
2022-08-03T10:16:21.601Z,34.00
2022-08-03T10:18:06.111Z,34.00
2022-08-03T10:20:38.399Z,34.10
2022-08-03T10:23:08.903Z,34.30
2022-08-03T10:25:39.031Z,34.30
2022-08-03T10:28:10.139Z,34.30
2022-08-03T10:30:41.494Z,34.60
2022-08-03T10:33:50.823Z,34.70
2022-08-03T10:36:06.159Z,34.70
2022-08-03T10:38:38.339Z,34.60
2022-08-03T10:41:08.989Z,34.50
2022-08-03T10:43:49.288Z,34.60
2022-08-03T10:46:19.859Z,34.90
2022-08-03T10:48:49.002Z,35.00
2022-08-03T10:51:17.634Z,35.10
2022-08-03T10:53:54.397Z,35.10
2022-08-03T10:57:05.618Z,35.30
2022-08-03T11:00:02.537Z,35.50
2022-08-03T11:03:06.842Z,35.50
2022-08-03T11:05:37.167Z,35.70
2022-08-03T11:08:30.904Z,35.50
2022-08-03T11:11:02.425Z,35.50
2022-08-03T11:13:33.921Z,35.60
2022-08-03T11:16:21.935Z,35.90
2022-08-03T11:19:01.209Z,36.20
2022-08-03T11:22:07.002Z,36.10
2022-08-03T11:25:01.961Z,35.90
2022-08-03T11:27:32.270Z,36.10
2022-08-03T11:30:04.657Z,36.20
2022-08-03T11:32:58.168Z,36.00
2022-08-03T11:35:29.276Z,36.00
2022-08-03T11:38:13.092Z,36.30
2022-08-03T11:40:44.797Z,36.40
2022-08-03T11:43:46.088Z,36.00
2022-08-03T11:46:29.473Z,36.40
2022-08-03T11:49:10.400Z,36.50
2022-08-03T11:51:40.329Z,36.80
2022-08-03T11:54:09.315Z,36.80
2022-08-03T11:56:46.234Z,36.90
2022-08-03T11:59:20.010Z,37.00
2022-08-03T12:01:49.177Z,37.00
2022-08-03T12:04:18.506Z,37.20
2022-08-03T12:06:59.527Z,37.20
2022-08-03T12:09:27.569Z,37.10
2022-08-03T12:12:00.330Z,37.30
2022-08-03T12:14:51.064Z,37.40
2022-08-03T12:17:18.823Z,37.20
2022-08-03T12:19:48.311Z,37.00
2022-08-03T12:22:17.197Z,36.80
2022-08-03T12:24:47.483Z,37.30
2022-08-03T12:27:24.754Z,37.50
2022-08-03T12:29:58.372Z,37.40
2022-08-03T12:32:27.492Z,37.20
2022-08-03T12:35:01.845Z,37.00
2022-08-03T12:37:30.683Z,36.70
2022-08-03T12:40:08.004Z,37.00
2022-08-03T12:42:39.790Z,37.20
2022-08-03T12:45:24.767Z,37.30
2022-08-03T12:47:56.465Z,37.60
2022-08-03T12:50:31.458Z,37.80
2022-08-03T12:53:00.504Z,38.00
2022-08-03T12:55:57.709Z,38.10
2022-08-03T12:58:34.644Z,38.20
2022-08-03T13:01:09.677Z,37.90
2022-08-03T13:03:45.886Z,38.10
2022-08-03T13:06:22.354Z,38.10
2022-08-03T13:08:51.984Z,38.00
2022-08-03T13:11:55.693Z,37.60
2022-08-03T13:14:13.447Z,37.30
2022-08-03T13:16:45.064Z,37.10
2022-08-03T13:19:15.466Z,37.40
2022-08-03T13:21:53.849Z,37.80
2022-08-03T13:24:34.588Z,38.20
2022-08-03T13:28:02.454Z,38.50
2022-08-03T13:29:53.524Z,38.60
2022-08-03T13:32:22.477Z,39.00
2022-08-03T13:34:50.926Z,39.20
2022-08-03T13:37:22.182Z,39.40
2022-08-03T13:39:59.042Z,39.70
2022-08-03T13:42:29.932Z,39.90
2022-08-03T13:44:58.586Z,39.70
2022-08-03T13:47:26.685Z,39.90
2022-08-03T13:50:01.927Z,39.50
2022-08-03T13:52:34.055Z,39.80
2022-08-03T13:55:04.250Z,40.20
2022-08-03T13:58:02.973Z,40.60
2022-08-03T14:00:29.280Z,40.70
2022-08-03T14:03:05.199Z,40.90
2022-08-03T14:05:36.145Z,41.10
2022-08-03T14:08:07.042Z,41.30
2022-08-03T14:10:38.380Z,41.40
2022-08-03T14:13:09.105Z,41.50
2022-08-03T14:15:38.460Z,41.60
2022-08-03T14:18:12.894Z,41.90
2022-08-03T14:20:50.297Z,42.10
2022-08-03T14:23:23.888Z,42.40
2022-08-03T14:25:53.203Z,42.60
2022-08-03T14:28:24.941Z,42.80
2022-08-03T14:30:54.403Z,42.90
2022-08-03T14:33:23.119Z,43.10
2022-08-03T14:35:51.759Z,43.20
2022-08-03T14:38:21.147Z,43.40
2022-08-03T14:40:51.784Z,43.60
2022-08-03T14:43:22.887Z,43.80
2022-08-03T14:45:53.975Z,43.90
2022-08-03T14:50:29.532Z,44.20
2022-08-03T14:51:11.873Z,44.50
2022-08-03T14:53:40.019Z,44.30
2022-08-03T14:56:10.718Z,44.30
2022-08-03T14:59:02.527Z,44.00
2022-08-03T15:02:04.298Z,44.10
2022-08-03T15:04:18.697Z,44.60
2022-08-03T15:06:46.668Z,44.10
2022-08-03T15:09:23.939Z,44.30
2022-08-03T15:11:54.039Z,44.00
2022-08-03T15:14:28.354Z,44.20
2022-08-03T15:17:01.298Z,44.70
2022-08-03T15:20:03.241Z,45.10
2022-08-03T15:22:20.794Z,45.30
2022-08-03T15:24:54.171Z,45.30
2022-08-03T15:27:23.759Z,45.60
2022-08-03T15:30:06.147Z,45.60
2022-08-03T15:32:38.426Z,45.90
2022-08-03T15:35:07.713Z,46.10
2022-08-03T15:37:35.759Z,46.00
2022-08-03T15:40:04.389Z,45.80
2022-08-03T15:42:34.478Z,45.00
2022-08-03T15:45:02.709Z,44.60
2022-08-03T15:47:30.819Z,45.00
2022-08-03T15:49:59.008Z,45.20
2022-08-03T15:52:28.118Z,45.00
2022-08-03T15:54:56.288Z,44.70
2022-08-03T15:57:24.308Z,44.30
2022-08-03T15:59:54.023Z,43.50
2022-08-03T16:02:22.538Z,41.70
2022-08-03T16:04:50.580Z,41.90
2022-08-03T16:07:38.966Z,42.40
2022-08-03T16:10:08.127Z,42.60
2022-08-03T16:12:36.405Z,42.40
2022-08-03T16:15:07.605Z,42.30
2022-08-03T16:17:35.824Z,42.80
2022-08-03T16:20:10.629Z,43.00
2022-08-03T16:22:45.987Z,42.70
2022-08-03T16:25:16.388Z,42.70
2022-08-03T16:28:03.305Z,43.30
2022-08-03T16:30:36.103Z,43.30
2022-08-03T16:33:05.165Z,43.10
2022-08-03T16:35:33.694Z,42.90
2022-08-03T16:38:05.383Z,43.10
2022-08-03T16:40:36.362Z,43.50
2022-08-03T16:43:19.710Z,43.90
2022-08-03T16:45:49.553Z,43.30
2022-08-03T16:48:18.733Z,43.10
2022-08-03T16:50:47.365Z,43.20
2022-08-03T16:53:17.523Z,43.10
2022-08-03T16:56:02.974Z,43.40
2022-08-03T16:58:41.749Z,43.20
2022-08-03T17:01:22.246Z,43.20
2022-08-03T17:04:03.674Z,42.90
2022-08-03T17:06:36.337Z,42.70
2022-08-03T17:09:08.710Z,42.80
2022-08-03T17:11:44.058Z,43.00
2022-08-03T17:14:15.714Z,42.90
2022-08-03T17:16:52.013Z,42.60
2022-08-03T17:19:23.507Z,42.80
2022-08-03T17:21:58.886Z,43.20
2022-08-03T17:24:29.024Z,43.20
2022-08-03T17:27:01.142Z,43.50
2022-08-03T17:29:30.070Z,42.50
2022-08-03T17:32:06.563Z,42.00
2022-08-03T17:34:38.613Z,42.40
2022-08-03T17:37:27.393Z,43.00
2022-08-03T17:39:59.217Z,42.80
2022-08-03T17:42:32.965Z,41.00
2022-08-03T17:45:03.818Z,41.40
2022-08-03T17:47:42.198Z,40.40
2022-08-03T17:50:25.328Z,38.30
2022-08-03T17:53:07.095Z,37.20
2022-08-03T17:55:58.986Z,36.70
2022-08-03T17:58:56.389Z,36.30
2022-08-03T18:02:03.401Z,35.70
2022-08-03T18:04:42.111Z,35.40
2022-08-03T18:07:12.738Z,35.20
2022-08-03T18:10:03.194Z,35.00
2022-08-03T18:12:41.457Z,34.80
2022-08-03T18:15:21.311Z,34.80
2022-08-03T18:18:10.533Z,34.80
2022-08-03T18:20:42.291Z,34.70
2022-08-03T18:23:25.444Z,34.40
2022-08-03T18:26:01.195Z,34.30
2022-08-03T18:28:30.080Z,34.10
2022-08-03T18:30:58.558Z,34.00
2022-08-03T18:34:16.802Z,34.00
2022-08-03T18:39:06.885Z,33.80
2022-08-03T18:41:36.884Z,33.80
2022-08-03T18:44:08.747Z,33.90
2022-08-03T18:46:54.090Z,34.00
2022-08-03T18:49:38.615Z,33.90
2022-08-03T18:52:16.236Z,33.90
2022-08-03T18:55:02.368Z,33.90
2022-08-03T18:57:46.469Z,34.00
2022-08-03T19:00:17.268Z,33.80
2022-08-03T19:02:57.027Z,33.80
2022-08-03T19:05:51.615Z,33.70
2022-08-03T19:08:25.979Z,33.50
2022-08-03T19:10:57.764Z,33.40
2022-08-03T19:13:36.599Z,33.20
2022-08-03T19:16:04.838Z,33.20
2022-08-03T19:18:38.042Z,33.20
2022-08-03T19:21:15.753Z,33.30
2022-08-03T19:23:47.540Z,33.40
2022-08-03T19:26:30.137Z,33.30
2022-08-03T19:29:00.361Z,33.10
2022-08-03T19:31:30.976Z,33.00
2022-08-03T19:34:04.125Z,33.00
2022-08-03T19:36:40.519Z,33.00
2022-08-03T19:39:14.522Z,33.10
2022-08-03T19:41:47.301Z,33.00
2022-08-03T19:44:26.746Z,32.80
2022-08-03T19:46:59.267Z,32.70
2022-08-03T19:49:56.990Z,32.50
2022-08-03T19:52:24.333Z,32.50
2022-08-03T19:55:00.656Z,32.60
2022-08-03T19:57:29.166Z,32.40
2022-08-03T19:59:58.165Z,32.20
2022-08-03T20:02:29.805Z,32.40
2022-08-03T20:04:59.745Z,32.40
2022-08-03T20:07:30.537Z,32.10
2022-08-03T20:10:01.776Z,31.90
2022-08-03T20:12:35.581Z,32.10
2022-08-03T20:15:10.915Z,32.40
2022-08-03T20:17:56.019Z,32.40
2022-08-03T20:20:28.330Z,32.40
2022-08-03T20:22:59.425Z,32.20
2022-08-03T20:25:38.217Z,32.00
2022-08-03T20:28:14.278Z,32.10
2022-08-03T20:30:47.132Z,32.20
2022-08-03T20:33:18.273Z,32.10
2022-08-03T20:35:49.295Z,32.00
2022-08-03T20:38:18.629Z,32.00
2022-08-03T20:40:48.909Z,31.70
2022-08-03T20:43:52.034Z,31.80
2022-08-03T20:46:32.658Z,31.50
2022-08-03T20:49:06.046Z,31.60
2022-08-03T20:51:50.297Z,31.70
2022-08-03T20:54:29.134Z,31.80
2022-08-03T20:57:04.106Z,31.70
2022-08-03T20:59:50.641Z,31.70
2022-08-03T21:02:28.893Z,31.60
2022-08-03T21:04:57.621Z,31.40
2022-08-03T21:08:04.046Z,31.40
2022-08-03T21:10:17.978Z,31.50
2022-08-03T21:12:53.089Z,31.50
2022-08-03T21:13:04.309Z,33.90
2022-08-03T21:16:01.125Z,31.00
2022-08-03T21:18:16.185Z,31.00
2022-08-03T21:20:46.423Z,31.20
2022-08-03T21:23:39.732Z,31.20
2022-08-03T21:26:05.501Z,31.10
2022-08-03T21:28:35.462Z,31.10
2022-08-03T21:31:04.135Z,31.20
2022-08-03T21:33:32.685Z,31.30
2022-08-03T21:36:03.428Z,31.20
2022-08-03T21:38:32.832Z,31.10
2022-08-03T21:41:02.087Z,30.90
2022-08-03T21:43:30.001Z,30.90
2022-08-03T21:46:05.792Z,31.00
2022-08-03T21:48:38.671Z,31.00
2022-08-03T21:51:08.600Z,30.70
2022-08-03T21:54:02.341Z,30.60
2022-08-03T21:56:26.397Z,30.50
2022-08-03T21:58:56.049Z,30.70
2022-08-03T22:01:27.703Z,30.70
2022-08-03T22:04:09.336Z,30.60
2022-08-03T22:06:42.611Z,30.60
2022-08-03T22:09:10.577Z,30.70
2022-08-03T22:11:38.888Z,30.50
2022-08-03T22:14:06.983Z,30.60
2022-08-03T22:16:36.593Z,30.40
2022-08-03T22:19:04.733Z,30.40
2022-08-03T22:21:36.639Z,30.20
2022-08-03T22:24:06.245Z,30.40
2022-08-03T22:26:36.042Z,30.40
2022-08-03T22:29:08.233Z,30.40
2022-08-03T22:31:58.126Z,30.30
2022-08-03T22:34:27.680Z,30.20
2022-08-03T22:36:57.305Z,30.10
2022-08-03T22:39:29.302Z,30.20
2022-08-03T22:41:59.252Z,30.30
2022-08-03T22:44:27.903Z,30.30
2022-08-03T22:46:58.040Z,30.20
2022-08-03T22:49:28.421Z,30.10
2022-08-03T22:51:57.991Z,30.00
2022-08-03T22:54:26.081Z,30.00
2022-08-03T22:56:53.894Z,29.90
2022-08-03T22:59:41.469Z,29.80
2022-08-03T23:02:20.895Z,29.70
2022-08-03T23:04:51.669Z,29.70
2022-08-03T23:07:27.805Z,29.70
2022-08-03T23:09:56.926Z,29.60
2022-08-03T23:12:24.704Z,29.50
2022-08-03T23:14:54.970Z,29.50
2022-08-03T23:17:26.584Z,29.60
2022-08-03T23:19:56.410Z,29.50
2022-08-03T23:22:30.101Z,29.50
2022-08-03T23:24:59.890Z,29.40
2022-08-03T23:27:28.263Z,29.30
2022-08-03T23:29:57.972Z,29.30
2022-08-03T23:32:29.032Z,29.20
2022-08-03T23:35:18.102Z,29.10
2022-08-03T23:38:04.537Z,29.00
2022-08-03T23:40:35.379Z,29.10
2022-08-03T23:43:04.006Z,29.10
2022-08-03T23:45:36.495Z,29.10
2022-08-03T23:48:07.096Z,29.10
2022-08-03T23:50:43.738Z,29.20
2022-08-03T23:53:18.706Z,29.20
2022-08-03T23:55:57.110Z,29.00
2022-08-03T23:58:47.540Z,29.10
